Time;durP1;ratioP1;P1;durP2;ratioP2;P2;SDS_P1;SDS_P2;PMS_P1;PMS_P2;Temp;Humidity;BMP_temperature;BMP_pressure;BME280_temperature;BME280_humidity;BME280_pressure;Samples;Min_cycle;Max_cycle;Signal;HPM_P1;HPM_P2
2023/01/01 00:01:15;;;;;;;;;;;30.00;96.30;;;;;;5071548;28;19912;-73
2023/01/01 00:03:42;;;;;;;;;;;29.90;93.90;;;;;;5070003;28;19919;-74
2023/01/01 00:06:09;;;;;;;;;;;29.70;93.90;;;;;;5072592;28;19917;-75
2023/01/01 00:08:39;;;;;;;;;;;29.50;93.80;;;;;;5070281;28;20413;-75
2023/01/01 00:11:07;;;;;;;;;;;29.60;94.60;;;;;;5066789;28;19917;-72
2023/01/01 00:13:34;;;;;;;;;;;29.90;94.70;;;;;;5070564;28;19912;-74
2023/01/01 00:16:04;;;;;;;;;;;30.30;93.70;;;;;;5072403;28;19947;-72
2023/01/01 00:18:31;;;;;;;;;;;30.30;93.30;;;;;;5072372;28;19924;-71
2023/01/01 00:21:02;;;;;;;;;;;30.40;93.30;;;;;;5070644;28;19958;-74
2023/01/01 00:23:29;;;;;;;;;;;30.40;92.90;;;;;;5068938;28;20081;-74
2023/01/01 00:25:55;;;;;;;;;;;30.40;93.00;;;;;;5066325;28;20383;-75
2023/01/01 00:28:22;;;;;;;;;;;30.40;92.60;;;;;;5069328;28;19939;-73
2023/01/01 00:30:48;;;;;;;;;;;30.40;92.50;;;;;;5064005;28;20341;-76
2023/01/01 00:33:15;;;;;;;;;;;30.50;92.70;;;;;;5064039;28;19917;-74
2023/01/01 00:35:42;;;;;;;;;;;30.70;93.20;;;;;;5072946;28;19927;-73
2023/01/01 00:38:09;;;;;;;;;;;31.10;93.20;;;;;;5071460;28;19924;-74
2023/01/01 00:40:35;;;;;;;;;;;31.40;92.50;;;;;;5071714;28;19916;-77
2023/01/01 00:43:02;;;;;;;;;;;31.50;91.60;;;;;;5070286;28;19916;-76
2023/01/01 00:45:29;;;;;;;;;;;31.30;91.70;;;;;;5068617;28;19969;-76
2023/01/01 00:47:55;;;;;;;;;;;31.30;91.60;;;;;;5070853;28;19981;-74
2023/01/01 00:50:22;;;;;;;;;;;31.50;91.80;;;;;;5069657;28;20396;-74
2023/01/01 00:52:49;;;;;;;;;;;31.70;91.40;;;;;;5067463;28;20401;-75
2023/01/01 00:55:16;;;;;;;;;;;31.40;90.60;;;;;;5068605;28;20387;-75
2023/01/01 00:57:42;;;;;;;;;;;30.90;91.30;;;;;;5067314;28;19955;-76
2023/01/01 01:00:09;;;;;;;;;;;31.30;92.50;;;;;;5069826;28;19913;-76
2023/01/01 01:02:36;;;;;;;;;;;31.60;92.00;;;;;;5064145;28;20252;-75
2023/01/01 01:05:03;;;;;;;;;;;32.10;91.30;;;;;;5069674;28;19912;-73
2023/01/01 01:07:39;;;;;;;;;;;32.60;91.30;;;;;;5070232;28;19922;-73
2023/01/01 01:10:06;;;;;;;;;;;33.20;91.20;;;;;;5071827;28;20384;-73
2023/01/01 01:12:33;;;;;;;;;;;33.70;90.40;;;;;;5068017;28;19919;-74
2023/01/01 01:15:00;;;;;;;;;;;33.40;88.70;;;;;;5070906;28;20434;-75
2023/01/01 01:17:28;;;;;;;;;;;33.10;89.20;;;;;;5068997;28;21174;-73
2023/01/01 01:19:55;;;;;;;;;;;32.60;88.90;;;;;;5070641;28;19912;-74
2023/01/01 01:22:22;;;;;;;;;;;32.00;90.10;;;;;;5069142;28;19913;-72
2023/01/01 01:24:49;;;;;;;;;;;31.70;90.70;;;;;;5065374;28;19916;-73
2023/01/01 01:27:16;;;;;;;;;;;32.00;91.20;;;;;;5069414;28;19916;-75
2023/01/01 01:29:42;;;;;;;;;;;32.70;90.60;;;;;;5065646;28;19917;-75
2023/01/01 01:32:10;;;;;;;;;;;33.20;91.00;;;;;;5065290;28;19923;-78
2023/01/01 01:34:37;;;;;;;;;;;33.40;90.50;;;;;;5068401;28;20410;-77
2023/01/01 01:37:03;;;;;;;;;;;33.20;90.90;;;;;;5069141;28;19974;-76
2023/01/01 01:39:30;;;;;;;;;;;32.80;90.90;;;;;;5067410;28;20353;-77
2023/01/01 01:41:57;;;;;;;;;;;32.60;91.30;;;;;;5068751;28;19999;-76
2023/01/01 01:44:42;;;;;;;;;;;32.40;91.40;;;;;;5069345;28;19913;-77
2023/01/01 01:47:14;;;;;;;;;;;32.10;91.30;;;;;;5067480;28;19920;-73
2023/01/01 01:49:42;;;;;;;;;;;32.00;91.40;;;;;;5062739;28;19912;-72
2023/01/01 01:52:09;;;;;;;;;;;32.30;91.40;;;;;;5067404;28;19952;-74
2023/01/01 01:54:36;;;;;;;;;;;32.30;91.30;;;;;;5068506;28;19913;-73
2023/01/01 01:57:05;;;;;;;;;;;31.90;91.70;;;;;;5069757;28;20393;-73
2023/01/01 01:59:34;;;;;;;;;;;31.60;92.00;;;;;;5065051;28;19916;-77
2023/01/01 02:02:01;;;;;;;;;;;31.30;92.40;;;;;;5065037;28;20027;-75
2023/01/01 02:04:28;;;;;;;;;;;30.90;92.80;;;;;;5064044;28;19917;-75
2023/01/01 02:06:55;;;;;;;;;;;30.60;93.00;;;;;;5060058;28;19916;-74
2023/01/01 02:09:21;;;;;;;;;;;30.20;93.30;;;;;;5060804;28;20423;-74
2023/01/01 02:11:48;;;;;;;;;;;29.70;93.80;;;;;;5064600;28;19923;-75
2023/01/01 02:14:15;;;;;;;;;;;29.40;94.10;;;;;;5064333;28;19917;-76
2023/01/01 02:16:44;;;;;;;;;;;29.20;94.30;;;;;;5069126;28;20009;-76
2023/01/01 02:19:23;;;;;;;;;;;29.10;94.20;;;;;;5065585;28;20389;-73
2023/01/01 02:22:08;;;;;;;;;;;28.90;94.50;;;;;;5061224;28;19919;-76
2023/01/01 02:24:52;;;;;;;;;;;29.40;94.20;;;;;;5066701;28;19919;-72
2023/01/01 02:27:22;;;;;;;;;;;30.20;93.60;;;;;;5067509;28;19921;-77
2023/01/01 02:30:01;;;;;;;;;;;30.80;93.20;;;;;;5066270;28;19966;-72
2023/01/01 02:32:34;;;;;;;;;;;31.30;92.70;;;;;;5063632;28;19927;-74
2023/01/01 02:35:33;;;;;;;;;;;31.20;92.60;;;;;;5069816;28;20822;-72
2023/01/01 02:37:52;;;;;;;;;;;31.20;92.80;;;;;;5065340;28;20024;-72
2023/01/01 02:40:20;;;;;;;;;;;31.40;91.80;;;;;;5065964;28;20008;-77
2023/01/01 02:42:48;;;;;;;;;;;31.40;92.00;;;;;;5063039;28;22197;-73
2023/01/01 02:45:14;;;;;;;;;;;31.20;92.40;;;;;;5066407;28;19917;-73
2023/01/01 02:47:41;;;;;;;;;;;31.00;92.90;;;;;;5065973;28;19912;-74
2023/01/01 02:50:11;;;;;;;;;;;31.10;94.10;;;;;;5065608;28;19990;-75
2023/01/01 02:52:48;;;;;;;;;;;31.60;93.60;;;;;;5066623;28;19912;-72
2023/01/01 02:55:14;;;;;;;;;;;31.90;93.60;;;;;;5065057;28;19920;-76
2023/01/01 02:57:45;;;;;;;;;;;32.20;93.50;;;;;;5059292;28;20354;-75
2023/01/01 03:00:26;;;;;;;;;;;32.40;93.20;;;;;;5067592;28;19966;-72
2023/01/01 03:02:59;;;;;;;;;;;32.60;93.30;;;;;;5067462;28;20647;-74
2023/01/01 03:05:33;;;;;;;;;;;32.30;93.10;;;;;;5066617;28;19920;-74
2023/01/01 03:08:16;;;;;;;;;;;32.00;93.00;;;;;;5067273;28;19919;-74
2023/01/01 03:10:55;;;;;;;;;;;31.50;92.80;;;;;;5064815;28;19922;-78
2023/01/01 03:13:25;;;;;;;;;;;30.80;93.80;;;;;;5067649;28;20386;-73
2023/01/01 03:15:55;;;;;;;;;;;30.30;94.00;;;;;;5069677;28;19912;-74
2023/01/01 03:18:42;;;;;;;;;;;30.30;94.00;;;;;;5066694;28;19964;-73
2023/01/01 03:21:09;;;;;;;;;;;30.70;94.20;;;;;;5066704;28;19913;-75
2023/01/01 03:23:45;;;;;;;;;;;31.20;93.70;;;;;;5068778;28;19912;-72
2023/01/01 03:26:13;;;;;;;;;;;31.30;92.90;;;;;;5074334;28;20330;-78
2023/01/01 03:28:44;;;;;;;;;;;31.40;93.00;;;;;;5062501;28;19912;-75
2023/01/01 03:31:14;;;;;;;;;;;31.40;92.80;;;;;;5062528;28;19931;-75
2023/01/01 03:33:48;;;;;;;;;;;31.50;92.70;;;;;;5068860;28;19913;-76
2023/01/01 03:36:21;;;;;;;;;;;31.70;92.10;;;;;;5070222;28;19912;-76
2023/01/01 03:38:50;;;;;;;;;;;31.60;92.40;;;;;;5070692;28;19931;-75
2023/01/01 03:41:25;;;;;;;;;;;31.50;92.20;;;;;;5069197;28;19919;-75
2023/01/01 03:43:58;;;;;;;;;;;31.40;92.40;;;;;;5070797;28;20037;-75
2023/01/01 03:46:27;;;;;;;;;;;31.40;92.30;;;;;;5073112;28;19908;-75
2023/01/01 03:48:59;;;;;;;;;;;31.60;92.10;;;;;;5070896;28;19922;-74
2023/01/01 03:51:37;;;;;;;;;;;31.60;91.90;;;;;;5067154;28;19921;-78
2023/01/01 03:54:08;;;;;;;;;;;31.70;92.00;;;;;;5069004;28;19921;-76
2023/01/01 03:56:41;;;;;;;;;;;31.60;91.70;;;;;;5073696;28;19912;-73
2023/01/01 03:59:08;;;;;;;;;;;31.10;92.10;;;;;;5065317;28;20409;-74
2023/01/01 04:01:43;;;;;;;;;;;30.70;92.20;;;;;;5070307;28;19974;-76
2023/01/01 04:04:10;;;;;;;;;;;30.90;92.70;;;;;;5068072;28;19912;-72
2023/01/01 04:06:37;;;;;;;;;;;31.30;92.30;;;;;;5070818;28;19912;-76
2023/01/01 04:09:07;;;;;;;;;;;31.20;91.60;;;;;;5064820;28;20446;-74
2023/01/01 04:14:28;;;;;;;;;;;30.60;92.30;;;;;;5066759;28;20313;-74
2023/01/01 04:16:58;;;;;;;;;;;30.50;92.20;;;;;;5067686;28;19927;-76
2023/01/01 04:19:25;;;;;;;;;;;30.80;92.10;;;;;;5070975;28;19925;-77
2023/01/01 04:21:52;;;;;;;;;;;31.10;91.30;;;;;;5070492;28;19918;-75
2023/01/01 04:24:19;;;;;;;;;;;31.20;91.40;;;;;;5057659;28;20275;-73
2023/01/01 04:26:45;;;;;;;;;;;31.20;91.20;;;;;;5067083;28;19943;-76
2023/01/01 04:29:12;;;;;;;;;;;31.20;91.40;;;;;;5060302;28;19916;-75
2023/01/01 04:31:39;;;;;;;;;;;31.30;91.60;;;;;;5071268;28;19936;-76
2023/01/01 04:34:06;;;;;;;;;;;31.50;91.20;;;;;;5064733;28;19938;-75
2023/01/01 04:36:36;;;;;;;;;;;31.80;90.80;;;;;;5061324;28;19966;-76
2023/01/01 04:39:03;;;;;;;;;;;31.80;90.90;;;;;;5054405;28;19912;-76
2023/01/01 04:41:30;;;;;;;;;;;31.90;91.20;;;;;;5066303;28;20683;-76
2023/01/01 04:43:57;;;;;;;;;;;32.00;91.10;;;;;;5061343;28;19919;-76
2023/01/01 04:46:23;;;;;;;;;;;31.70;90.70;;;;;;5061527;28;19964;-75
2023/01/01 04:48:50;;;;;;;;;;;31.50;91.10;;;;;;5064371;28;19966;-76
2023/01/01 04:51:18;;;;;;;;;;;31.70;91.40;;;;;;5070328;28;20071;-79
2023/01/01 04:53:45;;;;;;;;;;;31.70;91.40;;;;;;5065050;28;19912;-75
2023/01/01 04:56:19;;;;;;;;;;;31.40;91.60;;;;;;5068424;28;20374;-77
2023/01/01 04:58:46;;;;;;;;;;;31.00;92.10;;;;;;5069035;28;19920;-75
2023/01/01 05:01:24;;;;;;;;;;;30.50;92.50;;;;;;5061278;28;20248;-76
2023/01/01 05:03:52;;;;;;;;;;;30.10;92.90;;;;;;5067688;28;19912;-76
2023/01/01 05:06:18;;;;;;;;;;;29.80;92.90;;;;;;5059295;28;19966;-78
2023/01/01 05:08:46;;;;;;;;;;;29.60;93.10;;;;;;5065173;28;19919;-76
2023/01/01 05:11:17;;;;;;;;;;;29.80;93.00;;;;;;5065153;28;19924;-74
2023/01/01 05:13:45;;;;;;;;;;;30.20;92.60;;;;;;5068124;28;20302;-75
2023/01/01 05:16:13;;;;;;;;;;;30.70;92.50;;;;;;5071113;28;19913;-74
2023/01/01 05:18:40;;;;;;;;;;;30.90;91.90;;;;;;5068707;28;19917;-77
2023/01/01 05:21:08;;;;;;;;;;;30.60;92.10;;;;;;5068981;28;19924;-77
2023/01/01 05:23:35;;;;;;;;;;;30.30;92.40;;;;;;5066604;28;20006;-78
2023/01/01 05:26:12;;;;;;;;;;;30.10;92.20;;;;;;5072007;28;19916;-77
2023/01/01 05:28:39;;;;;;;;;;;29.90;92.50;;;;;;5063859;28;19995;-74
2023/01/01 05:31:07;;;;;;;;;;;29.80;92.50;;;;;;5067130;28;19974;-75
2023/01/01 05:33:33;;;;;;;;;;;29.70;92.60;;;;;;5066623;28;19999;-80
2023/01/01 05:36:00;;;;;;;;;;;29.50;92.90;;;;;;5069176;28;20011;-77
2023/01/01 05:38:27;;;;;;;;;;;29.40;93.20;;;;;;5067032;28;20291;-74
2023/01/01 05:40:54;;;;;;;;;;;29.40;92.80;;;;;;5066956;28;19959;-74
2023/01/01 05:43:21;;;;;;;;;;;29.70;93.40;;;;;;5069161;27;19977;-75
2023/01/01 05:45:47;;;;;;;;;;;30.10;92.50;;;;;;5069770;28;19995;-73
2023/01/01 05:48:14;;;;;;;;;;;30.30;92.10;;;;;;5061818;28;19919;-75
2023/01/01 05:50:41;;;;;;;;;;;30.10;92.20;;;;;;5061550;28;19959;-73
2023/01/01 05:53:07;;;;;;;;;;;29.90;92.50;;;;;;5064021;28;19920;-73
2023/01/01 05:55:34;;;;;;;;;;;29.90;92.70;;;;;;5070376;28;19952;-73
2023/01/01 05:58:01;;;;;;;;;;;30.20;92.90;;;;;;5066238;28;20432;-74
2023/01/01 06:00:27;;;;;;;;;;;30.40;92.20;;;;;;5068664;28;19919;-73
2023/01/01 06:02:54;;;;;;;;;;;30.40;92.10;;;;;;5065350;28;19917;-72
2023/01/01 06:05:21;;;;;;;;;;;30.10;92.00;;;;;;5068300;28;20374;-73
2023/01/01 06:07:47;;;;;;;;;;;29.70;92.40;;;;;;5065710;28;19959;-73
2023/01/01 06:10:14;;;;;;;;;;;29.40;92.90;;;;;;5066766;28;19919;-74
2023/01/01 06:12:40;;;;;;;;;;;29.20;92.90;;;;;;5066717;28;19920;-72
2023/01/01 06:15:07;;;;;;;;;;;29.30;92.80;;;;;;5057659;28;19924;-75
2023/01/01 06:17:34;;;;;;;;;;;29.40;92.60;;;;;;5067008;28;19927;-73
2023/01/01 06:20:01;;;;;;;;;;;29.60;92.60;;;;;;5058584;28;20362;-74
2023/01/01 06:22:27;;;;;;;;;;;29.70;92.40;;;;;;5061959;28;21492;-73
2023/01/01 06:24:54;;;;;;;;;;;29.80;91.50;;;;;;5061809;28;20038;-73
2023/01/01 06:27:21;;;;;;;;;;;29.80;91.80;;;;;;5069200;28;20023;-73
2023/01/01 06:29:47;;;;;;;;;;;29.80;91.80;;;;;;5067571;28;19923;-74
2023/01/01 06:32:14;;;;;;;;;;;29.90;91.70;;;;;;5070295;28;19912;-74
2023/01/01 06:34:40;;;;;;;;;;;29.80;91.30;;;;;;5064980;28;20070;-74
2023/01/01 06:37:07;;;;;;;;;;;29.80;91.60;;;;;;5063937;28;20528;-73
2023/01/01 06:39:34;;;;;;;;;;;29.60;91.70;;;;;;5044116;28;19913;-74
2023/01/01 06:42:01;;;;;;;;;;;29.40;92.00;;;;;;5048234;28;19989;-75
2023/01/01 06:44:27;;;;;;;;;;;29.30;91.80;;;;;;5042543;28;19917;-76
2023/01/01 06:46:54;;;;;;;;;;;29.20;92.30;;;;;;5050195;28;20345;-74
2023/01/01 06:49:21;;;;;;;;;;;29.20;93.00;;;;;;5054022;28;19940;-74
2023/01/01 06:51:47;;;;;;;;;;;29.20;93.10;;;;;;5051707;28;19924;-72
2023/01/01 06:54:14;;;;;;;;;;;29.10;93.00;;;;;;5045534;28;19917;-73
2023/01/01 06:56:41;;;;;;;;;;;28.90;93.40;;;;;;5046347;28;19913;-73
2023/01/01 06:59:07;;;;;;;;;;;28.60;93.60;;;;;;5046155;28;19948;-72
2023/01/01 07:01:36;;;;;;;;;;;28.30;93.90;;;;;;5053410;28;19944;-72
2023/01/01 07:04:04;;;;;;;;;;;28.20;94.20;;;;;;5033171;28;21495;-70
2023/01/01 07:06:31;;;;;;;;;;;28.10;94.30;;;;;;5055804;28;19912;-72
2023/01/01 07:08:58;;;;;;;;;;;28.00;94.20;;;;;;5043011;28;19935;-73
2023/01/01 07:11:25;;;;;;;;;;;27.80;94.50;;;;;;5052243;28;19962;-72
2023/01/01 07:13:51;;;;;;;;;;;27.80;94.60;;;;;;5043911;28;19913;-73
2023/01/01 07:16:22;;;;;;;;;;;27.70;94.60;;;;;;5051564;28;19943;-72
2023/01/01 07:18:52;;;;;;;;;;;27.70;94.70;;;;;;5044741;28;20350;-71
2023/01/01 07:21:37;;;;;;;;;;;27.50;94.80;;;;;;5050975;28;19997;-72
2023/01/01 07:24:05;;;;;;;;;;;27.30;94.80;;;;;;5044205;28;20047;-72
2023/01/01 07:26:32;;;;;;;;;;;27.20;95.20;;;;;;5045992;28;20000;-72
2023/01/01 07:28:59;;;;;;;;;;;27.00;95.60;;;;;;5045179;28;19917;-73
2023/01/01 07:31:26;;;;;;;;;;;27.00;95.80;;;;;;5048005;28;20394;-72
2023/01/01 07:33:53;;;;;;;;;;;27.20;95.70;;;;;;5049516;28;19936;-72
2023/01/01 07:36:19;;;;;;;;;;;27.30;95.60;;;;;;5053678;28;20398;-71
2023/01/01 07:38:46;;;;;;;;;;;27.50;95.50;;;;;;5060537;28;19932;-73
2023/01/01 07:41:13;;;;;;;;;;;27.60;95.40;;;;;;5068130;28;19979;-72
2023/01/01 07:43:39;;;;;;;;;;;27.60;95.40;;;;;;5068197;28;19951;-74
2023/01/01 07:46:06;;;;;;;;;;;27.60;95.50;;;;;;5072495;28;19919;-72
2023/01/01 07:48:32;;;;;;;;;;;27.50;95.60;;;;;;5062808;28;19923;-73
2023/01/01 07:50:59;;;;;;;;;;;27.50;95.70;;;;;;5067259;28;20242;-72
2023/01/01 07:53:26;;;;;;;;;;;27.40;95.80;;;;;;5070030;28;19917;-71
2023/01/01 07:55:53;;;;;;;;;;;27.30;95.50;;;;;;5073279;28;19964;-70
2023/01/01 07:58:21;;;;;;;;;;;27.20;95.40;;;;;;5066468;28;19974;-71
2023/01/01 08:00:48;;;;;;;;;;;26.90;95.70;;;;;;5070932;28;19925;-71
2023/01/01 08:03:15;;;;;;;;;;;26.90;95.90;;;;;;5063388;28;19912;-71
2023/01/01 08:05:42;;;;;;;;;;;26.80;95.80;;;;;;5070896;28;19919;-70
2023/01/01 08:08:09;;;;;;;;;;;26.70;95.40;;;;;;5066006;28;19961;-73
2023/01/01 08:10:36;;;;;;;;;;;26.50;95.60;;;;;;5070286;28;19920;-73
2023/01/01 08:13:04;;;;;;;;;;;26.50;96.10;;;;;;5070586;28;20311;-71
2023/01/01 08:15:31;;;;;;;;;;;26.30;96.10;;;;;;5071005;28;19938;-73
2023/01/01 08:18:02;;;;;;;;;;;26.20;96.30;;;;;;5068962;28;19947;-72
2023/01/01 08:20:29;;;;;;;;;;;26.00;96.50;;;;;;5070730;28;19927;-71
2023/01/01 08:22:56;;;;;;;;;;;25.90;97.10;;;;;;5070354;28;20293;-70
2023/01/01 08:25:23;;;;;;;;;;;25.80;97.40;;;;;;5061490;28;19970;-71
2023/01/01 08:27:49;;;;;;;;;;;25.80;97.40;;;;;;5063308;28;19973;-72
2023/01/01 08:30:16;;;;;;;;;;;25.60;97.60;;;;;;5071025;28;19916;-71
2023/01/01 08:32:43;;;;;;;;;;;25.60;97.80;;;;;;5070138;28;19912;-72
2023/01/01 08:35:10;;;;;;;;;;;25.70;97.90;;;;;;5070255;28;20386;-71
2023/01/01 08:37:36;;;;;;;;;;;25.50;98.00;;;;;;5066975;28;19955;-71
2023/01/01 08:40:03;;;;;;;;;;;25.50;98.10;;;;;;5070294;28;19919;-71
2023/01/01 08:42:30;;;;;;;;;;;25.50;98.20;;;;;;5061301;28;19973;-70
2023/01/01 08:44:58;;;;;;;;;;;25.40;98.20;;;;;;5067991;28;20360;-71
2023/01/01 08:47:25;;;;;;;;;;;25.20;98.10;;;;;;5059141;28;19957;-70
2023/01/01 08:49:53;;;;;;;;;;;25.20;98.40;;;;;;5067729;28;19912;-70
2023/01/01 08:52:20;;;;;;;;;;;25.00;98.40;;;;;;5070368;28;20945;-71
2023/01/01 08:54:47;;;;;;;;;;;25.00;98.50;;;;;;5067459;28;19913;-70
2023/01/01 08:57:14;;;;;;;;;;;25.00;98.60;;;;;;5069020;28;19978;-70
2023/01/01 08:59:40;;;;;;;;;;;25.00;98.50;;;;;;5060391;28;19928;-71
2023/01/01 09:02:07;;;;;;;;;;;24.90;98.70;;;;;;5067564;28;20110;-71
2023/01/01 09:04:34;;;;;;;;;;;24.90;98.80;;;;;;5068838;28;19912;-70
2023/01/01 09:07:01;;;;;;;;;;;24.90;99.00;;;;;;5069607;28;19916;-71
2023/01/01 09:09:28;;;;;;;;;;;24.80;99.20;;;;;;5067939;28;19916;-70
2023/01/01 09:11:57;;;;;;;;;;;24.70;99.40;;;;;;5065925;28;19912;-72
2023/01/01 09:14:25;;;;;;;;;;;24.60;99.50;;;;;;5067719;28;19958;-72
2023/01/01 09:16:51;;;;;;;;;;;24.50;99.60;;;;;;5062707;28;19916;-72
2023/01/01 09:19:18;;;;;;;;;;;24.40;99.80;;;;;;5067590;28;19921;-72
2023/01/01 09:21:45;;;;;;;;;;;24.40;99.80;;;;;;5070595;28;20269;-71
2023/01/01 09:24:11;;;;;;;;;;;24.30;99.70;;;;;;5069693;28;19913;-73
2023/01/01 09:26:38;;;;;;;;;;;24.20;99.90;;;;;;5068719;28;20395;-72
2023/01/01 09:29:04;;;;;;;;;;;24.10;99.90;;;;;;5069412;28;19920;-72
2023/01/01 09:31:31;;;;;;;;;;;24.00;99.90;;;;;;5067990;28;19916;-70
2023/01/01 09:33:58;;;;;;;;;;;24.00;99.90;;;;;;5060105;28;19920;-71
2023/01/01 09:36:25;;;;;;;;;;;24.00;99.90;;;;;;5069919;28;19913;-71
2023/01/01 09:38:52;;;;;;;;;;;23.90;99.90;;;;;;5070398;28;19943;-71
2023/01/01 09:41:25;;;;;;;;;;;23.80;99.90;;;;;;5044342;28;20316;-71
2023/01/01 09:43:51;;;;;;;;;;;23.80;99.90;;;;;;5041806;28;19912;-72
2023/01/01 09:46:18;;;;;;;;;;;23.70;99.90;;;;;;5044019;28;19924;-71
2023/01/01 09:48:55;;;;;;;;;;;23.70;99.90;;;;;;5041554;28;19995;-72
2023/01/01 09:51:23;;;;;;;;;;;23.70;99.90;;;;;;5032389;28;20233;-73
2023/01/01 09:54:19;;;;;;;;;;;23.70;99.90;;;;;;5041601;28;19931;-72
2023/01/01 09:56:46;;;;;;;;;;;23.70;99.90;;;;;;5031525;28;19963;-74
2023/01/01 09:59:12;;;;;;;;;;;23.60;99.90;;;;;;5041239;28;19916;-71
2023/01/01 10:01:45;;;;;;;;;;;23.70;99.90;;;;;;5044052;28;19921;-71
2023/01/01 10:04:12;;;;;;;;;;;23.60;99.90;;;;;;5047372;28;19913;-71
2023/01/01 10:06:43;;;;;;;;;;;23.70;99.90;;;;;;5042739;28;19994;-71
2023/01/01 10:09:21;;;;;;;;;;;23.70;99.90;;;;;;5023058;28;19931;-69
2023/01/01 10:11:53;;;;;;;;;;;23.70;99.90;;;;;;5043808;28;19917;-71
2023/01/01 10:14:31;;;;;;;;;;;23.60;99.90;;;;;;5043854;28;19921;-71
2023/01/01 10:16:58;;;;;;;;;;;23.60;99.90;;;;;;5044693;28;20295;-70
2023/01/01 10:19:37;;;;;;;;;;;23.60;99.90;;;;;;5049413;28;19943;-72
2023/01/01 10:22:06;;;;;;;;;;;23.60;99.90;;;;;;5048542;28;19913;-72
2023/01/01 10:24:37;;;;;;;;;;;23.60;99.90;;;;;;5048748;28;19919;-72
2023/01/01 10:27:04;;;;;;;;;;;23.50;99.90;;;;;;5044635;28;19913;-72
2023/01/01 10:29:41;;;;;;;;;;;23.50;99.90;;;;;;5044029;28;19913;-73
2023/01/01 10:32:16;;;;;;;;;;;23.40;99.90;;;;;;5047834;28;19923;-73
2023/01/01 10:34:47;;;;;;;;;;;23.40;99.90;;;;;;5047483;28;19919;-71
2023/01/01 10:37:14;;;;;;;;;;;23.30;99.90;;;;;;5055242;28;20286;-73
2023/01/01 10:39:41;;;;;;;;;;;23.30;99.90;;;;;;5060734;28;19927;-74
2023/01/01 10:42:10;;;;;;;;;;;23.20;99.90;;;;;;5066675;28;19923;-73
2023/01/01 10:44:37;;;;;;;;;;;23.20;99.90;;;;;;5065145;28;19955;-73
2023/01/01 10:47:13;;;;;;;;;;;23.20;99.90;;;;;;5062555;28;19919;-74
2023/01/01 10:50:08;;;;;;;;;;;23.10;99.90;;;;;;5066474;28;19939;-72
2023/01/01 10:52:36;;;;;;;;;;;23.10;99.90;;;;;;5059745;28;19916;-71
2023/01/01 10:55:05;;;;;;;;;;;23.10;99.90;;;;;;5067599;28;20586;-71
2023/01/01 10:57:39;;;;;;;;;;;23.10;99.90;;;;;;5064878;28;20282;-74
2023/01/01 11:00:20;;;;;;;;;;;23.10;99.90;;;;;;5068274;28;19939;-72
2023/01/01 11:02:47;;;;;;;;;;;23.10;99.90;;;;;;5063829;28;20112;-72
2023/01/01 11:05:21;;;;;;;;;;;23.10;99.90;;;;;;5067646;28;20235;-71
2023/01/01 11:07:47;;;;;;;;;;;23.20;99.90;;;;;;5060985;28;19920;-71
2023/01/01 11:10:19;;;;;;;;;;;23.10;99.90;;;;;;5066926;28;19920;-71
2023/01/01 11:12:45;;;;;;;;;;;23.20;99.90;;;;;;5061806;28;19917;-70
2023/01/01 11:15:23;;;;;;;;;;;23.10;99.90;;;;;;5062971;28;19936;-71
2023/01/01 11:17:50;;;;;;;;;;;23.00;99.90;;;;;;5062705;28;20077;-73
2023/01/01 11:20:19;;;;;;;;;;;23.00;99.90;;;;;;5067726;28;19916;-73
2023/01/01 11:22:51;;;;;;;;;;;23.00;99.90;;;;;;5066064;28;20609;-73
2023/01/01 11:25:22;;;;;;;;;;;22.90;99.90;;;;;;5069009;28;20355;-72
2023/01/01 11:27:49;;;;;;;;;;;22.90;99.90;;;;;;5063071;28;20391;-72
2023/01/01 11:30:27;;;;;;;;;;;22.80;99.90;;;;;;5067468;28;19916;-72
2023/01/01 11:33:01;;;;;;;;;;;22.90;99.90;;;;;;5063958;28;19923;-73
2023/01/01 11:35:30;;;;;;;;;;;22.90;99.90;;;;;;5061372;28;20011;-72
2023/01/01 11:37:58;;;;;;;;;;;22.90;99.90;;;;;;5061299;28;19928;-72
2023/01/01 11:40:31;;;;;;;;;;;22.90;99.90;;;;;;5062809;28;19939;-72
2023/01/01 11:42:58;;;;;;;;;;;22.90;99.90;;;;;;5060529;28;20344;-72
2023/01/01 11:45:29;;;;;;;;;;;22.90;99.90;;;;;;5067149;28;19927;-72
2023/01/01 11:48:00;;;;;;;;;;;22.80;99.90;;;;;;5064997;28;19916;-73
2023/01/01 11:50:34;;;;;;;;;;;22.90;99.90;;;;;;5067430;28;20301;-72
2023/01/01 11:53:27;;;;;;;;;;;22.90;99.90;;;;;;5067951;28;19951;-73
2023/01/01 11:56:15;;;;;;;;;;;22.90;99.90;;;;;;5066057;28;19960;-73
2023/01/01 11:58:41;;;;;;;;;;;22.70;99.90;;;;;;5064956;28;19926;-73
2023/01/01 12:01:26;;;;;;;;;;;22.60;99.90;;;;;;5077399;28;19931;-72
2023/01/01 12:03:53;;;;;;;;;;;22.60;99.90;;;;;;5074406;28;19912;-72
2023/01/01 12:06:32;;;;;;;;;;;22.60;99.90;;;;;;5075809;28;19916;-73
2023/01/01 12:09:01;;;;;;;;;;;22.60;99.90;;;;;;5067986;28;19920;-72
2023/01/01 12:11:41;;;;;;;;;;;22.50;99.90;;;;;;5070642;28;20267;-72
2023/01/01 12:14:13;;;;;;;;;;;22.60;99.90;;;;;;5066589;28;19917;-72
2023/01/01 12:16:58;;;;;;;;;;;22.60;99.90;;;;;;5071602;28;20007;-70
2023/01/01 12:19:28;;;;;;;;;;;22.50;99.90;;;;;;5069526;28;19962;-71
2023/01/01 12:21:56;;;;;;;;;;;22.40;99.90;;;;;;5071849;28;19912;-72
2023/01/01 12:24:24;;;;;;;;;;;22.40;99.90;;;;;;5066601;28;19913;-72
2023/01/01 12:26:51;;;;;;;;;;;22.30;99.90;;;;;;5071353;28;19912;-71
2023/01/01 12:29:25;;;;;;;;;;;22.30;99.90;;;;;;5068269;28;19916;-72
2023/01/01 12:31:51;;;;;;;;;;;22.30;99.90;;;;;;5062526;28;20065;-73
2023/01/01 12:34:36;;;;;;;;;;;22.20;99.90;;;;;;5064402;28;20401;-73
2023/01/01 12:37:09;;;;;;;;;;;22.10;99.90;;;;;;5066515;28;19969;-73
2023/01/01 12:39:51;;;;;;;;;;;22.00;99.90;;;;;;5062702;28;20382;-72
2023/01/01 12:42:32;;;;;;;;;;;22.00;99.90;;;;;;5058894;28;19962;-71
2023/01/01 12:45:12;;;;;;;;;;;22.00;99.90;;;;;;5063051;28;19920;-72
2023/01/01 12:47:57;;;;;;;;;;;22.00;99.90;;;;;;5067286;28;20399;-72
2023/01/01 12:50:47;;;;;;;;;;;22.00;99.90;;;;;;5065225;28;19923;-74
2023/01/01 12:53:20;;;;;;;;;;;22.00;99.90;;;;;;5037804;28;19924;-71
2023/01/01 12:55:46;;;;;;;;;;;22.00;99.90;;;;;;5064982;28;19995;-73
2023/01/01 12:58:17;;;;;;;;;;;22.00;99.90;;;;;;5063841;28;19925;-74
2023/01/01 13:00:50;;;;;;;;;;;22.10;99.90;;;;;;5060963;28;20444;-74
2023/01/01 13:03:38;;;;;;;;;;;22.10;99.90;;;;;;5061438;28;19916;-74
2023/01/01 13:06:05;;;;;;;;;;;22.10;99.90;;;;;;5091693;28;20289;-73
2023/01/01 13:08:33;;;;;;;;;;;22.10;99.90;;;;;;5070018;28;19951;-74
2023/01/01 13:11:01;;;;;;;;;;;22.10;99.90;;;;;;5067865;28;19925;-72
2023/01/01 13:13:28;;;;;;;;;;;22.10;99.90;;;;;;5060939;28;20309;-72
2023/01/01 13:15:55;;;;;;;;;;;22.10;99.90;;;;;;5067710;28;20015;-73
2023/01/01 13:18:24;;;;;;;;;;;22.10;99.90;;;;;;5062519;28;20516;-72
2023/01/01 13:20:53;;;;;;;;;;;22.10;99.90;;;;;;5055446;28;19923;-73
2023/01/01 13:23:29;;;;;;;;;;;22.10;99.90;;;;;;5060903;28;20704;-73
2023/01/01 13:26:34;;;;;;;;;;;22.10;99.90;;;;;;5060828;28;19916;-74
2023/01/01 13:29:01;;;;;;;;;;;22.00;99.90;;;;;;5045039;28;19959;-73
2023/01/01 13:31:43;;;;;;;;;;;22.00;99.90;;;;;;5046587;28;20326;-72
2023/01/01 13:34:27;;;;;;;;;;;22.00;99.90;;;;;;5046673;28;19921;-73
2023/01/01 13:37:09;;;;;;;;;;;22.00;99.90;;;;;;5065188;28;19986;-74
2023/01/01 13:39:54;;;;;;;;;;;22.00;99.90;;;;;;5064809;28;20820;-73
2023/01/01 13:42:41;;;;;;;;;;;21.90;99.90;;;;;;5059599;28;19959;-74
2023/01/01 13:45:13;;;;;;;;;;;21.90;99.90;;;;;;5063444;28;20243;-75
2023/01/01 13:48:00;;;;;;;;;;;21.80;99.90;;;;;;5065593;28;19917;-73
2023/01/01 13:50:29;;;;;;;;;;;21.70;99.90;;;;;;5056354;28;19916;-73
2023/01/01 13:52:56;;;;;;;;;;;21.70;99.90;;;;;;5066968;28;19998;-72
2023/01/01 13:55:45;;;;;;;;;;;21.60;99.90;;;;;;5065962;28;20012;-73
2023/01/01 13:58:17;;;;;;;;;;;21.50;99.90;;;;;;5068294;28;20035;-73
2023/01/01 14:01:07;;;;;;;;;;;21.50;99.90;;;;;;5069667;28;19908;-73
2023/01/01 14:03:45;;;;;;;;;;;21.40;99.90;;;;;;5052516;28;20374;-74
2023/01/01 14:06:14;;;;;;;;;;;21.40;99.90;;;;;;5063812;28;19947;-73
2023/01/01 14:08:41;;;;;;;;;;;21.30;99.90;;;;;;5063538;28;19943;-73
2023/01/01 14:11:23;;;;;;;;;;;21.30;99.90;;;;;;5061931;28;19956;-72
2023/01/01 14:13:50;;;;;;;;;;;21.30;99.90;;;;;;5061551;28;19975;-71
2023/01/01 14:16:17;;;;;;;;;;;21.20;99.90;;;;;;5064736;28;19913;-72
2023/01/01 14:18:46;;;;;;;;;;;21.10;99.90;;;;;;5068249;28;19924;-72
2023/01/01 14:21:18;;;;;;;;;;;21.10;99.90;;;;;;5067712;28;20282;-71
2023/01/01 14:23:55;;;;;;;;;;;21.00;99.90;;;;;;5058926;28;19917;-70
2023/01/01 14:26:23;;;;;;;;;;;21.00;99.90;;;;;;5061083;28;19912;-70
2023/01/01 14:28:54;;;;;;;;;;;20.90;99.90;;;;;;5059893;28;20031;-71
2023/01/01 14:31:22;;;;;;;;;;;20.90;99.90;;;;;;5069369;28;19958;-71
2023/01/01 14:33:49;;;;;;;;;;;20.90;99.90;;;;;;5068006;28;19913;-72
2023/01/01 14:36:29;;;;;;;;;;;20.80;99.90;;;;;;5063651;28;19916;-72